sensor_id;sensor_type;location;lat;lon;timestamp;pressure;altitude;pressure_sealevel;temperature;humidity
24666;BME280;29726;53.532;-1.478;2022-08-05T00:01:32;100962.25;;;21.15;nan
24666;BME280;29726;53.532;-1.478;2022-08-05T00:03:58;100955.28;;;21.10;nan
24666;BME280;29726;53.532;-1.478;2022-08-05T00:06:23;100955.81;;;21.09;nan
24666;BME280;29726;53.532;-1.478;2022-08-05T00:08:49;100960.25;;;21.04;nan
24666;BME280;29726;53.532;-1.478;2022-08-05T00:11:15;100962.88;;;21.02;nan
24666;BME280;29726;53.532;-1.478;2022-08-05T00:13:42;100955.13;;;20.97;nan
24666;BME280;29726;53.532;-1.478;2022-08-05T00:16:10;100963.66;;;20.97;nan
24666;BME280;29726;53.532;-1.478;2022-08-05T00:18:41;100956.97;;;20.95;nan
24666;BME280;29726;53.532;-1.478;2022-08-05T00:21:08;100947.75;;;20.89;nan
24666;BME280;29726;53.532;-1.478;2022-08-05T00:23:34;100956.25;;;20.89;nan
24666;BME280;29726;53.532;-1.478;2022-08-05T00:25:59;100956.78;;;20.87;nan
24666;BME280;29726;53.532;-1.478;2022-08-05T00:28:25;100948.53;;;20.84;nan
24666;BME280;29726;53.532;-1.478;2022-08-05T00:30:50;100941.84;;;20.81;nan
24666;BME280;29726;53.532;-1.478;2022-08-05T00:33:16;100933.09;;;20.79;nan
24666;BME280;29726;53.532;-1.478;2022-08-05T00:35:41;100951.94;;;20.77;nan
24666;BME280;29726;53.532;-1.478;2022-08-05T00:38:07;100951.69;;;20.75;nan
24666;BME280;29726;53.532;-1.478;2022-08-05T00:40:33;100954.03;;;20.71;nan
24666;BME280;29726;53.532;-1.478;2022-08-05T00:43:00;100960.22;;;20.69;nan
24666;BME280;29726;53.532;-1.478;2022-08-05T00:45:27;100964.13;;;20.66;nan
24666;BME280;29726;53.532;-1.478;2022-08-05T00:47:52;100960.25;;;20.64;nan
24666;BME280;29726;53.532;-1.478;2022-08-05T00:50:18;100968.84;;;20.58;nan
24666;BME280;29726;53.532;-1.478;2022-08-05T00:52:43;100960.06;;;20.56;nan
24666;BME280;29726;53.532;-1.478;2022-08-05T00:55:09;100963.66;;;20.57;nan
24666;BME280;29726;53.532;-1.478;2022-08-05T00:57:36;100961.88;;;20.54;nan
24666;BME280;29726;53.532;-1.478;2022-08-05T01:00:03;100963.69;;;20.51;nan
24666;BME280;29726;53.532;-1.478;2022-08-05T01:02:29;100950.09;;;20.39;nan
24666;BME280;29726;53.532;-1.478;2022-08-05T01:04:54;100973.81;;;20.47;nan
24666;BME280;29726;53.532;-1.478;2022-08-05T01:07:20;100961.44;;;20.44;nan
24666;BME280;29726;53.532;-1.478;2022-08-05T01:09:45;100976.91;;;20.43;nan
24666;BME280;29726;53.532;-1.478;2022-08-05T01:12:13;100967.91;;;20.39;nan
24666;BME280;29726;53.532;-1.478;2022-08-05T01:15:12;100974.09;;;20.38;nan
24666;BME280;29726;53.532;-1.478;2022-08-05T01:17:46;100973.09;;;20.35;nan
24666;BME280;29726;53.532;-1.478;2022-08-05T01:23:28;100972.31;;;20.29;nan
24666;BME280;29726;53.532;-1.478;2022-08-05T01:26:20;100970.53;;;20.26;nan
24666;BME280;29726;53.532;-1.478;2022-08-05T01:29:05;100978.03;;;20.24;nan
24666;BME280;29726;53.532;-1.478;2022-08-05T01:31:42;100967.22;;;20.23;nan
24666;BME280;29726;53.532;-1.478;2022-08-05T01:34:15;100973.94;;;20.20;nan
24666;BME280;29726;53.532;-1.478;2022-08-05T01:36:52;100965.19;;;20.18;nan
24666;BME280;29726;53.532;-1.478;2022-08-05T01:39:20;100969.06;;;20.15;nan
24666;BME280;29726;53.532;-1.478;2022-08-05T01:41:48;100961.63;;;20.12;nan
24666;BME280;29726;53.532;-1.478;2022-08-05T01:44:15;100962.91;;;20.11;nan
24666;BME280;29726;53.532;-1.478;2022-08-05T01:46:43;100964.19;;;20.10;nan
24666;BME280;29726;53.532;-1.478;2022-08-05T01:49:13;100960.34;;;20.07;nan
24666;BME280;29726;53.532;-1.478;2022-08-05T01:51:41;100961.13;;;20.02;nan
24666;BME280;29726;53.532;-1.478;2022-08-05T01:54:09;100968.59;;;20.05;nan
24666;BME280;29726;53.532;-1.478;2022-08-05T01:56:40;100969.63;;;20.02;nan
24666;BME280;29726;53.532;-1.478;2022-08-05T01:59:09;100969.34;;;20.00;nan
24666;BME280;29726;53.532;-1.478;2022-08-05T02:01:36;100966.78;;;19.97;nan
24666;BME280;29726;53.532;-1.478;2022-08-05T02:04:04;100980.19;;;19.96;nan
24666;BME280;29726;53.532;-1.478;2022-08-05T02:06:30;100977.09;;;19.94;nan
24666;BME280;29726;53.532;-1.478;2022-08-05T02:08:57;100974.00;;;19.92;nan
24666;BME280;29726;53.532;-1.478;2022-08-05T02:11:22;100971.72;;;19.91;nan
24666;BME280;29726;53.532;-1.478;2022-08-05T02:13:55;100970.16;;;19.90;nan
24666;BME280;29726;53.532;-1.478;2022-08-05T02:16:28;100970.69;;;19.88;nan
24666;BME280;29726;53.532;-1.478;2022-08-05T02:19:52;100957.56;;;19.85;nan
24666;BME280;29726;53.532;-1.478;2022-08-05T02:22:17;100953.69;;;19.83;nan
24666;BME280;29726;53.532;-1.478;2022-08-05T02:24:50;100954.22;;;19.81;nan
24666;BME280;29726;53.532;-1.478;2022-08-05T02:27:18;100968.16;;;19.79;nan
24666;BME280;29726;53.532;-1.478;2022-08-05T02:29:46;100951.94;;;19.74;nan
24666;BME280;29726;53.532;-1.478;2022-08-05T02:32:15;100955.03;;;19.76;nan
24666;BME280;29726;53.532;-1.478;2022-08-05T02:34:42;100955.28;;;19.73;nan
24666;BME280;29726;53.532;-1.478;2022-08-05T02:37:11;100955.03;;;19.71;nan
24666;BME280;29726;53.532;-1.478;2022-08-05T02:39:39;100966.13;;;19.69;nan
24666;BME280;29726;53.532;-1.478;2022-08-05T02:42:07;100955.81;;;19.66;nan
24666;BME280;29726;53.532;-1.478;2022-08-05T02:44:34;100959.16;;;19.64;nan
24666;BME280;29726;53.532;-1.478;2022-08-05T02:47:03;100952.50;;;19.62;nan
24666;BME280;29726;53.532;-1.478;2022-08-05T02:49:37;100965.88;;;19.61;nan
24666;BME280;29726;53.532;-1.478;2022-08-05T02:52:10;100959.16;;;19.59;nan
24666;BME280;29726;53.532;-1.478;2022-08-05T02:54:38;100971.53;;;19.56;nan
24666;BME280;29726;53.532;-1.478;2022-08-05T02:57:07;100965.63;;;19.54;nan
24666;BME280;29726;53.532;-1.478;2022-08-05T02:59:35;100963.56;;;19.49;nan
24666;BME280;29726;53.532;-1.478;2022-08-05T03:02:01;100968.47;;;19.48;nan
24666;BME280;29726;53.532;-1.478;2022-08-05T03:04:27;100964.09;;;19.47;nan
24666;BME280;29726;53.532;-1.478;2022-08-05T03:06:53;100963.06;;;19.45;nan
24666;BME280;29726;53.532;-1.478;2022-08-05T03:09:19;100964.88;;;19.42;nan
24666;BME280;29726;53.532;-1.478;2022-08-05T03:11:45;100964.13;;;19.42;nan
24666;BME280;29726;53.532;-1.478;2022-08-05T03:14:10;100968.25;;;19.41;nan
24666;BME280;29726;53.532;-1.478;2022-08-05T03:16:36;100964.88;;;19.37;nan
24666;BME280;29726;53.532;-1.478;2022-08-05T03:19:03;100967.97;;;19.33;nan
24666;BME280;29726;53.532;-1.478;2022-08-05T03:21:28;100974.94;;;19.32;nan
24666;BME280;29726;53.532;-1.478;2022-08-05T03:23:54;100969.28;;;19.32;nan
24666;BME280;29726;53.532;-1.478;2022-08-05T03:26:21;100978.28;;;19.31;nan
24666;BME280;29726;53.532;-1.478;2022-08-05T03:28:46;100979.56;;;19.30;nan
24666;BME280;29726;53.532;-1.478;2022-08-05T03:31:12;100981.38;;;19.27;nan
24666;BME280;29726;53.532;-1.478;2022-08-05T03:33:38;100974.94;;;19.27;nan
24666;BME280;29726;53.532;-1.478;2022-08-05T03:36:04;100976.22;;;19.26;nan
24666;BME280;29726;53.532;-1.478;2022-08-05T03:38:29;100980.84;;;19.23;nan
24666;BME280;29726;53.532;-1.478;2022-08-05T03:40:55;100981.38;;;19.22;nan
24666;BME280;29726;53.532;-1.478;2022-08-05T03:43:21;100977.78;;;19.16;nan
24666;BME280;29726;53.532;-1.478;2022-08-05T03:45:50;100978.03;;;19.18;nan
24666;BME280;29726;53.532;-1.478;2022-08-05T03:48:16;100985.00;;;19.17;nan
24666;BME280;29726;53.532;-1.478;2022-08-05T03:50:47;100985.47;;;19.15;nan
24666;BME280;29726;53.532;-1.478;2022-08-05T03:53:28;100982.88;;;19.12;nan
24666;BME280;29726;53.532;-1.478;2022-08-05T03:56:04;100991.91;;;19.10;nan
24666;BME280;29726;53.532;-1.478;2022-08-05T03:58:34;100988.03;;;19.08;nan
24666;BME280;29726;53.532;-1.478;2022-08-05T04:01:01;100988.56;;;19.06;nan
24666;BME280;29726;53.532;-1.478;2022-08-05T04:03:30;100990.34;;;19.04;nan
24666;BME280;29726;53.532;-1.478;2022-08-05T04:06:00;100988.03;;;19.02;nan
24666;BME280;29726;53.532;-1.478;2022-08-05T04:08:27;100992.66;;;19.00;nan
24666;BME280;29726;53.532;-1.478;2022-08-05T04:10:58;101002.44;;;18.99;nan
24666;BME280;29726;53.532;-1.478;2022-08-05T04:13:27;100988.53;;;18.95;nan
24666;BME280;29726;53.532;-1.478;2022-08-05T04:15:53;100997.56;;;18.94;nan
24666;BME280;29726;53.532;-1.478;2022-08-05T04:18:22;101000.13;;;18.92;nan
24666;BME280;29726;53.532;-1.478;2022-08-05T04:20:52;101002.69;;;18.90;nan
24666;BME280;29726;53.532;-1.478;2022-08-05T04:23:18;101001.13;;;18.89;nan
24666;BME280;29726;53.532;-1.478;2022-08-05T04:25:43;101000.88;;;18.87;nan
24666;BME280;29726;53.532;-1.478;2022-08-05T04:28:09;100998.06;;;18.81;nan
24666;BME280;29726;53.532;-1.478;2022-08-05T04:30:34;101006.56;;;18.81;nan
24666;BME280;29726;53.532;-1.478;2022-08-05T04:32:59;101002.19;;;18.80;nan
24666;BME280;29726;53.532;-1.478;2022-08-05T04:35:25;100996.22;;;18.78;nan
24666;BME280;29726;53.532;-1.478;2022-08-05T04:37:50;101005.75;;;18.75;nan
24666;BME280;29726;53.532;-1.478;2022-08-05T04:40:16;100996.25;;;18.73;nan
24666;BME280;29726;53.532;-1.478;2022-08-05T04:42:41;101006.78;;;18.72;nan
24666;BME280;29726;53.532;-1.478;2022-08-05T04:45:07;101004.22;;;18.69;nan
24666;BME280;29726;53.532;-1.478;2022-08-05T04:47:32;101003.44;;;18.68;nan
24666;BME280;29726;53.532;-1.478;2022-08-05T04:49:58;101001.09;;;18.67;nan
24666;BME280;29726;53.532;-1.478;2022-08-05T04:52:23;101001.63;;;18.65;nan
24666;BME280;29726;53.532;-1.478;2022-08-05T04:54:48;100999.28;;;18.64;nan
24666;BME280;29726;53.532;-1.478;2022-08-05T04:57:14;101008.81;;;18.61;nan
24666;BME280;29726;53.532;-1.478;2022-08-05T04:59:39;101003.94;;;18.61;nan
24666;BME280;29726;53.532;-1.478;2022-08-05T05:02:05;101008.56;;;18.59;nan
24666;BME280;29726;53.532;-1.478;2022-08-05T05:04:31;101007.00;;;18.58;nan
24666;BME280;29726;53.532;-1.478;2022-08-05T05:06:56;101014.22;;;18.59;nan
24666;BME280;29726;53.532;-1.478;2022-08-05T05:09:21;101008.28;;;18.57;nan
24666;BME280;29726;53.532;-1.478;2022-08-05T05:11:47;101013.19;;;18.56;nan
24666;BME280;29726;53.532;-1.478;2022-08-05T05:14:12;101010.06;;;18.54;nan
24666;BME280;29726;53.532;-1.478;2022-08-05T05:16:38;101010.06;;;18.54;nan
24666;BME280;29726;53.532;-1.478;2022-08-05T05:19:03;101018.56;;;18.54;nan
24666;BME280;29726;53.532;-1.478;2022-08-05T05:21:29;101008.53;;;18.48;nan
24666;BME280;29726;53.532;-1.478;2022-08-05T05:23:54;101018.56;;;18.54;nan
24666;BME280;29726;53.532;-1.478;2022-08-05T05:26:19;101021.91;;;18.53;nan
24666;BME280;29726;53.532;-1.478;2022-08-05T05:28:45;101020.38;;;18.52;nan
24666;BME280;29726;53.532;-1.478;2022-08-05T05:31:11;101024.72;;;18.53;nan
24666;BME280;29726;53.532;-1.478;2022-08-05T05:33:37;101026.25;;;18.48;nan
24666;BME280;29726;53.532;-1.478;2022-08-05T05:36:03;101033.72;;;18.51;nan
24666;BME280;29726;53.532;-1.478;2022-08-05T05:38:28;101032.97;;;18.51;nan
24666;BME280;29726;53.532;-1.478;2022-08-05T05:40:55;101027.53;;;18.48;nan
24666;BME280;29726;53.532;-1.478;2022-08-05T05:43:21;101035.00;;;18.50;nan
24666;BME280;29726;53.532;-1.478;2022-08-05T05:45:47;101042.72;;;18.50;nan
24666;BME280;29726;53.532;-1.478;2022-08-05T05:48:12;101044.78;;;18.49;nan
24666;BME280;29726;53.532;-1.478;2022-08-05T05:50:38;101053.25;;;18.49;nan
24666;BME280;29726;53.532;-1.478;2022-08-05T05:53:05;101046.84;;;18.49;nan
24666;BME280;29726;53.532;-1.478;2022-08-05T05:55:32;101048.63;;;18.47;nan
24666;BME280;29726;53.532;-1.478;2022-08-05T05:57:58;101051.22;;;18.50;nan
24666;BME280;29726;53.532;-1.478;2022-08-05T06:00:23;101054.78;;;18.50;nan
24666;BME280;29726;53.532;-1.478;2022-08-05T06:02:48;101070.22;;;18.49;nan
24666;BME280;29726;53.532;-1.478;2022-08-05T06:05:15;101069.47;;;18.49;nan
24666;BME280;29726;53.532;-1.478;2022-08-05T06:07:41;101071.00;;;18.50;nan
24666;BME280;29726;53.532;-1.478;2022-08-05T06:10:08;101069.47;;;18.49;nan
24666;BME280;29726;53.532;-1.478;2022-08-05T06:12:35;101073.03;;;18.49;nan
24666;BME280;29726;53.532;-1.478;2022-08-05T06:15:02;101075.88;;;18.49;nan
24666;BME280;29726;53.532;-1.478;2022-08-05T06:17:28;101082.31;;;18.50;nan
24666;BME280;29726;53.532;-1.478;2022-08-05T06:19:54;101083.06;;;18.50;nan
24666;BME280;29726;53.532;-1.478;2022-08-05T06:22:24;101082.31;;;18.50;nan
24666;BME280;29726;53.532;-1.478;2022-08-05T06:24:51;101087.72;;;18.48;nan
24666;BME280;29726;53.532;-1.478;2022-08-05T06:27:16;101083.88;;;18.51;nan
24666;BME280;29726;53.532;-1.478;2022-08-05T06:29:42;101093.63;;;18.50;nan
24666;BME280;29726;53.532;-1.478;2022-08-05T06:32:08;101087.19;;;18.49;nan
24666;BME280;29726;53.532;-1.478;2022-08-05T06:34:34;101089.25;;;18.49;nan
24666;BME280;29726;53.532;-1.478;2022-08-05T06:36:59;101091.56;;;18.50;nan
24666;BME280;29726;53.532;-1.478;2022-08-05T06:39:25;101082.06;;;18.48;nan
24666;BME280;29726;53.532;-1.478;2022-08-05T06:41:50;101082.06;;;18.48;nan
24666;BME280;29726;53.532;-1.478;2022-08-05T06:44:16;101085.16;;;18.50;nan
24666;BME280;29726;53.532;-1.478;2022-08-05T06:46:41;101088.72;;;18.50;nan
24666;BME280;29726;53.532;-1.478;2022-08-05T06:49:07;101095.94;;;18.51;nan
24666;BME280;29726;53.532;-1.478;2022-08-05T06:51:32;101088.72;;;18.50;nan
24666;BME280;29726;53.532;-1.478;2022-08-05T06:53:59;101083.88;;;18.51;nan
24666;BME280;29726;53.532;-1.478;2022-08-05T06:56:25;101087.97;;;18.50;nan
24666;BME280;29726;53.532;-1.478;2022-08-05T06:58:51;101083.88;;;18.51;nan
24666;BME280;29726;53.532;-1.478;2022-08-05T07:01:16;101091.56;;;18.50;nan
24666;BME280;29726;53.532;-1.478;2022-08-05T07:03:42;101082.06;;;18.48;nan
24666;BME280;29726;53.532;-1.478;2022-08-05T07:06:07;101077.41;;;18.50;nan
24666;BME280;29726;53.532;-1.478;2022-08-05T07:08:33;101081.28;;;18.48;nan
24666;BME280;29726;53.532;-1.478;2022-08-05T07:10:58;101084.34;;;18.49;nan
24666;BME280;29726;53.532;-1.478;2022-08-05T07:13:24;101087.72;;;18.53;nan
24666;BME280;29726;53.532;-1.478;2022-08-05T07:16:08;101081.56;;;18.55;nan
24666;BME280;29726;53.532;-1.478;2022-08-05T07:18:52;101083.88;;;18.56;nan
24666;BME280;29726;53.532;-1.478;2022-08-05T07:21:18;101075.66;;;18.58;nan
24666;BME280;29726;53.532;-1.478;2022-08-05T07:23:43;101083.63;;;18.60;nan
24666;BME280;29726;53.532;-1.478;2022-08-05T07:26:09;101083.88;;;18.62;nan
24666;BME280;29726;53.532;-1.478;2022-08-05T07:28:34;101087.75;;;18.64;nan
24666;BME280;29726;53.532;-1.478;2022-08-05T07:31:00;101076.94;;;18.63;nan
24666;BME280;29726;53.532;-1.478;2022-08-05T07:33:25;101080.84;;;18.71;nan
24666;BME280;29726;53.532;-1.478;2022-08-05T07:35:50;101081.13;;;18.73;nan
24666;BME280;29726;53.532;-1.478;2022-08-05T07:38:16;101083.69;;;18.76;nan
24666;BME280;29726;53.532;-1.478;2022-08-05T07:40:43;101084.97;;;18.81;nan
24666;BME280;29726;53.532;-1.478;2022-08-05T07:43:10;101091.16;;;18.85;nan
24666;BME280;29726;53.532;-1.478;2022-08-05T07:45:36;101090.41;;;18.90;nan
24666;BME280;29726;53.532;-1.478;2022-08-05T07:48:02;101083.75;;;18.93;nan
24666;BME280;29726;53.532;-1.478;2022-08-05T07:50:27;101079.09;;;18.95;nan
24666;BME280;29726;53.532;-1.478;2022-08-05T07:52:53;101078.88;;;19.04;nan
24666;BME280;29726;53.532;-1.478;2022-08-05T07:55:18;101079.66;;;19.10;nan
24666;BME280;29726;53.532;-1.478;2022-08-05T07:57:44;101078.41;;;19.17;nan
24666;BME280;29726;53.532;-1.478;2022-08-05T08:00:10;101078.13;;;19.20;nan
24666;BME280;29726;53.532;-1.478;2022-08-05T08:02:38;101079.94;;;19.29;nan
24666;BME280;29726;53.532;-1.478;2022-08-05T08:05:04;101085.63;;;19.34;nan
24666;BME280;29726;53.532;-1.478;2022-08-05T08:07:30;101081.53;;;19.41;nan
24666;BME280;29726;53.532;-1.478;2022-08-05T08:09:55;101086.41;;;19.46;nan
24666;BME280;29726;53.532;-1.478;2022-08-05T08:12:21;101091.03;;;19.54;nan
24666;BME280;29726;53.532;-1.478;2022-08-05T08:14:47;101085.34;;;19.60;nan
24666;BME280;29726;53.532;-1.478;2022-08-05T08:17:13;101079.19;;;19.67;nan
24666;BME280;29726;53.532;-1.478;2022-08-05T08:19:39;101075.81;;;19.74;nan
24666;BME280;29726;53.532;-1.478;2022-08-05T08:22:06;101086.63;;;19.81;nan
24666;BME280;29726;53.532;-1.478;2022-08-05T08:24:32;101087.66;;;19.89;nan
24666;BME280;29726;53.532;-1.478;2022-08-05T08:26:57;101078.13;;;19.92;nan
24666;BME280;29726;53.532;-1.478;2022-08-05T08:29:23;101083.03;;;20.02;nan
24666;BME280;29726;53.532;-1.478;2022-08-05T08:31:49;101085.84;;;20.08;nan
24666;BME280;29726;53.532;-1.478;2022-08-05T08:34:19;101079.91;;;20.17;nan
24666;BME280;29726;53.532;-1.478;2022-08-05T08:36:45;101087.09;;;20.23;nan
24666;BME280;29726;53.532;-1.478;2022-08-05T08:39:11;101084.50;;;20.30;nan
24666;BME280;29726;53.532;-1.478;2022-08-05T08:41:39;101081.38;;;20.34;nan
24666;BME280;29726;53.532;-1.478;2022-08-05T08:44:07;101086.00;;;20.42;nan
24666;BME280;29726;53.532;-1.478;2022-08-05T08:46:33;101086.47;;;20.52;nan
24666;BME280;29726;53.532;-1.478;2022-08-05T08:49:01;101092.38;;;20.59;nan
24666;BME280;29726;53.532;-1.478;2022-08-05T08:51:31;101093.13;;;20.65;nan
24666;BME280;29726;53.532;-1.478;2022-08-05T08:53:57;101103.16;;;20.72;nan
24666;BME280;29726;53.532;-1.478;2022-08-05T08:56:23;101095.38;;;20.78;nan
24666;BME280;29726;53.532;-1.478;2022-08-05T08:58:49;101099.78;;;20.84;nan
24666;BME280;29726;53.532;-1.478;2022-08-05T09:01:16;101101.78;;;20.89;nan
24666;BME280;29726;53.532;-1.478;2022-08-05T09:03:44;101104.63;;;20.95;nan
24666;BME280;29726;53.532;-1.478;2022-08-05T09:06:10;101101.75;;;21.00;nan
24666;BME280;29726;53.532;-1.478;2022-08-05T09:08:35;101097.63;;;21.01;nan
24666;BME280;29726;53.532;-1.478;2022-08-05T09:11:01;101102.44;;;21.12;nan
24666;BME280;29726;53.532;-1.478;2022-08-05T09:13:27;101104.47;;;21.17;nan
24666;BME280;29726;53.532;-1.478;2022-08-05T09:15:53;101093.06;;;21.22;nan
24666;BME280;29726;53.532;-1.478;2022-08-05T09:18:18;101088.88;;;21.29;nan
24666;BME280;29726;53.532;-1.478;2022-08-05T09:20:44;101105.91;;;21.34;nan
24666;BME280;29726;53.532;-1.478;2022-08-05T09:23:12;101106.63;;;21.40;nan
24666;BME280;29726;53.532;-1.478;2022-08-05T09:25:42;101106.81;;;21.48;nan
24666;BME280;29726;53.532;-1.478;2022-08-05T09:28:19;101111.16;;;21.54;nan
24666;BME280;29726;53.532;-1.478;2022-08-05T09:33:21;101103.13;;;21.64;nan
24666;BME280;29726;53.532;-1.478;2022-08-05T09:36:01;101106.91;;;21.72;nan
24666;BME280;29726;53.532;-1.478;2022-08-05T09:38:28;101097.88;;;21.73;nan
24666;BME280;29726;53.532;-1.478;2022-08-05T09:41:01;101110.44;;;21.83;nan
24666;BME280;29726;53.532;-1.478;2022-08-05T09:45:54;101110.84;;;21.93;nan
24666;BME280;29726;53.532;-1.478;2022-08-05T09:48:27;101114.97;;;21.97;nan
24666;BME280;29726;53.532;-1.478;2022-08-05T09:51:00;101131.94;;;22.02;nan
24666;BME280;29726;53.532;-1.478;2022-08-05T09:53:27;101122.63;;;22.07;nan
24666;BME280;29726;53.532;-1.478;2022-08-05T09:55:58;101113.00;;;22.10;nan
24666;BME280;29726;53.532;-1.478;2022-08-05T09:58:25;101119.41;;;22.16;nan
24666;BME280;29726;53.532;-1.478;2022-08-05T10:01:02;101104.91;;;22.20;nan
24666;BME280;29726;53.532;-1.478;2022-08-05T10:03:29;101108.22;;;22.24;nan
24666;BME280;29726;53.532;-1.478;2022-08-05T10:06:12;101120.84;;;22.28;nan
24666;BME280;29726;53.532;-1.478;2022-08-05T10:08:38;101120.75;;;22.34;nan
24666;BME280;29726;53.532;-1.478;2022-08-05T10:11:12;101125.38;;;22.37;nan
24666;BME280;29726;53.532;-1.478;2022-08-05T10:13:39;101114.53;;;22.41;nan
24666;BME280;29726;53.532;-1.478;2022-08-05T10:16:05;101117.06;;;22.44;nan
24666;BME280;29726;53.532;-1.478;2022-08-05T10:18:32;101120.34;;;22.48;nan
24666;BME280;29726;53.532;-1.478;2022-08-05T10:21:03;101126.28;;;22.50;nan
24666;BME280;29726;53.532;-1.478;2022-08-05T10:23:35;101119.53;;;22.53;nan
24666;BME280;29726;53.532;-1.478;2022-08-05T10:26:02;101125.72;;;22.57;nan
24666;BME280;29726;53.532;-1.478;2022-08-05T10:28:28;101122.00;;;22.62;nan
24666;BME280;29726;53.532;-1.478;2022-08-05T10:30:55;101124.34;;;22.64;nan
24666;BME280;29726;53.532;-1.478;2022-08-05T10:33:22;101118.56;;;22.69;nan
24666;BME280;29726;53.532;-1.478;2022-08-05T10:35:50;101118.50;;;22.75;nan
24666;BME280;29726;53.532;-1.478;2022-08-05T10:38:18;101125.19;;;22.77;nan
24666;BME280;29726;53.532;-1.478;2022-08-05T10:46:14;101135.59;;;22.93;nan
24666;BME280;29726;53.532;-1.478;2022-08-05T10:48:42;101137.59;;;22.98;nan
24666;BME280;29726;53.532;-1.478;2022-08-05T10:51:10;101120.81;;;22.95;nan
24666;BME280;29726;53.532;-1.478;2022-08-05T10:58:33;101136.31;;;23.18;nan
24666;BME280;29726;53.532;-1.478;2022-08-05T11:01:03;101133.41;;;23.23;nan
24666;BME280;29726;53.532;-1.478;2022-08-05T11:03:29;101137.44;;;23.28;nan
24666;BME280;29726;53.532;-1.478;2022-08-05T11:06:07;101135.31;;;23.34;nan
24666;BME280;29726;53.532;-1.478;2022-08-05T11:08:33;101145.28;;;23.40;nan
24666;BME280;29726;53.532;-1.478;2022-08-05T11:11:33;101145.22;;;23.46;nan
24666;BME280;29726;53.532;-1.478;2022-08-05T11:14:00;101143.03;;;23.52;nan
24666;BME280;29726;53.532;-1.478;2022-08-05T11:16:26;101136.81;;;23.53;nan
24666;BME280;29726;53.532;-1.478;2022-08-05T11:19:27;101149.34;;;23.63;nan
24666;BME280;29726;53.532;-1.478;2022-08-05T11:33:31;101159.25;;;23.93;nan
24666;BME280;29726;53.532;-1.478;2022-08-05T11:35:59;101157.63;;;23.98;nan
24666;BME280;29726;53.532;-1.478;2022-08-05T11:43:58;101176.53;;;24.14;nan
24666;BME280;29726;53.532;-1.478;2022-08-05T11:46:54;101179.06;;;24.17;nan
24666;BME280;29726;53.532;-1.478;2022-08-05T11:49:20;101177.94;;;24.20;nan
24666;BME280;29726;53.532;-1.478;2022-08-05T11:51:49;101185.09;;;24.27;nan
24666;BME280;29726;53.532;-1.478;2022-08-05T11:54:30;101185.00;;;24.32;nan
24666;BME280;29726;53.532;-1.478;2022-08-05T11:56:59;101189.41;;;24.33;nan
24666;BME280;29726;53.532;-1.478;2022-08-05T11:59:28;101185.66;;;24.38;nan
24666;BME280;29726;53.532;-1.478;2022-08-05T12:04:46;101183.47;;;24.44;nan
24666;BME280;29726;53.532;-1.478;2022-08-05T12:07:15;101198.97;;;24.49;nan
24666;BME280;29726;53.532;-1.478;2022-08-05T12:09:51;101196.81;;;24.55;nan
24666;BME280;29726;53.532;-1.478;2022-08-05T12:12:25;101196.47;;;24.58;nan
24666;BME280;29726;53.532;-1.478;2022-08-05T12:14:53;101205.50;;;24.62;nan
24666;BME280;29726;53.532;-1.478;2022-08-05T12:17:19;101208.56;;;24.64;nan
24666;BME280;29726;53.532;-1.478;2022-08-05T12:19:47;101208.47;;;24.70;nan
24666;BME280;29726;53.532;-1.478;2022-08-05T12:22:14;101214.41;;;24.72;nan
24666;BME280;29726;53.532;-1.478;2022-08-05T12:24:45;101207.59;;;24.75;nan
24666;BME280;29726;53.532;-1.478;2022-08-05T12:27:25;101221.53;;;24.78;nan
24666;BME280;29726;53.532;-1.478;2022-08-05T12:30:16;101224.41;;;24.78;nan
24666;BME280;29726;53.532;-1.478;2022-08-05T12:32:46;101227.91;;;24.84;nan
24666;BME280;29726;53.532;-1.478;2022-08-05T12:35:15;101228.13;;;24.86;nan
24666;BME280;29726;53.532;-1.478;2022-08-05T12:37:42;101221.31;;;24.89;nan
24666;BME280;29726;53.532;-1.478;2022-08-05T12:40:08;101218.44;;;24.89;nan
24666;BME280;29726;53.532;-1.478;2022-08-05T12:42:34;101223.28;;;24.94;nan
24666;BME280;29726;53.532;-1.478;2022-08-05T12:45:07;101217.81;;;24.96;nan
24666;BME280;29726;53.532;-1.478;2022-08-05T12:47:33;101215.94;;;24.99;nan
24666;BME280;29726;53.532;-1.478;2022-08-05T12:50:10;101227.56;;;25.01;nan
24666;BME280;29726;53.532;-1.478;2022-08-05T12:52:36;101215.59;;;25.02;nan
24666;BME280;29726;53.532;-1.478;2022-08-05T12:55:16;101217.34;;;25.05;nan
24666;BME280;29726;53.532;-1.478;2022-08-05T12:57:42;101216.81;;;25.07;nan
24666;BME280;29726;53.532;-1.478;2022-08-05T13:00:19;101221.44;;;25.10;nan
24666;BME280;29726;53.532;-1.478;2022-08-05T13:02:44;101219.31;;;25.10;nan
24666;BME280;29726;53.532;-1.478;2022-08-05T13:05:10;101222.81;;;25.16;nan
24666;BME280;29726;53.532;-1.478;2022-08-05T13:07:38;101226.72;;;25.19;nan
24666;BME280;29726;53.532;-1.478;2022-08-05T13:10:09;101232.84;;;25.23;nan
24666;BME280;29726;53.532;-1.478;2022-08-05T13:12:39;101237.47;;;25.26;nan
24666;BME280;29726;53.532;-1.478;2022-08-05T13:15:08;101232.75;;;25.28;nan
24666;BME280;29726;53.532;-1.478;2022-08-05T13:17:34;101249.56;;;25.32;nan
24666;BME280;29726;53.532;-1.478;2022-08-05T13:22:26;101252.28;;;25.37;nan
24666;BME280;29726;53.532;-1.478;2022-08-05T13:24:52;101264.50;;;25.38;nan
24666;BME280;29726;53.532;-1.478;2022-08-05T13:27:28;101262.63;;;25.40;nan
24666;BME280;29726;53.532;-1.478;2022-08-05T13:29:54;101266.69;;;25.45;nan
24666;BME280;29726;53.532;-1.478;2022-08-05T13:32:20;101267.69;;;25.47;nan
24666;BME280;29726;53.532;-1.478;2022-08-05T13:34:46;101258.31;;;25.47;nan
24666;BME280;29726;53.532;-1.478;2022-08-05T13:37:12;101261.06;;;25.52;nan
24666;BME280;29726;53.532;-1.478;2022-08-05T13:39:37;101272.94;;;25.56;nan
24666;BME280;29726;53.532;-1.478;2022-08-05T13:42:02;101270.28;;;25.58;nan
24666;BME280;29726;53.532;-1.478;2022-08-05T13:44:28;101272.03;;;25.61;nan
24666;BME280;29726;53.532;-1.478;2022-08-05T13:46:53;101277.97;;;25.63;nan